sensor_id;sensor_type;location;lat;lon;timestamp;temperature;humidity
65369;HTU21D;51970;53.484;49.488;2023-07-08T00:02:11;21.17;65.24
65369;HTU21D;51970;53.484;49.488;2023-07-08T00:04:38;21.06;65.80
65369;HTU21D;51970;53.484;49.488;2023-07-08T00:07:07;21.05;66.01
65369;HTU21D;51970;53.484;49.488;2023-07-08T00:09:36;21.05;65.99
65369;HTU21D;51970;53.484;49.488;2023-07-08T00:12:08;21.09;65.75
65369;HTU21D;51970;53.484;49.488;2023-07-08T00:14:34;21.07;65.98
65369;HTU21D;51970;53.484;49.488;2023-07-08T00:17:01;21.03;66.17
65369;HTU21D;51970;53.484;49.488;2023-07-08T00:19:27;21.05;66.20
65369;HTU21D;51970;53.484;49.488;2023-07-08T00:21:53;21.05;66.33
65369;HTU21D;51970;53.484;49.488;2023-07-08T00:24:19;21.04;66.41
65369;HTU21D;51970;53.484;49.488;2023-07-08T00:26:45;21.00;66.61
65369;HTU21D;51970;53.484;49.488;2023-07-08T00:29:12;21.01;66.47
65369;HTU21D;51970;53.484;49.488;2023-07-08T00:31:41;21.02;66.37
65369;HTU21D;51970;53.484;49.488;2023-07-08T00:34:07;21.06;66.20
65369;HTU21D;51970;53.484;49.488;2023-07-08T00:36:34;21.07;66.01
65369;HTU21D;51970;53.484;49.488;2023-07-08T00:39:02;21.10;65.96
65369;HTU21D;51970;53.484;49.488;2023-07-08T00:41:35;21.10;66.05
65369;HTU21D;51970;53.484;49.488;2023-07-08T00:44:02;21.14;65.82
65369;HTU21D;51970;53.484;49.488;2023-07-08T00:46:31;21.16;65.60
65369;HTU21D;51970;53.484;49.488;2023-07-08T00:51:37;21.21;65.56
65369;HTU21D;51970;53.484;49.488;2023-07-08T00:54:14;21.23;65.29
65369;HTU21D;51970;53.484;49.488;2023-07-08T00:57:01;21.37;65.04
65369;HTU21D;51970;53.484;49.488;2023-07-08T00:59:48;21.47;64.63
65369;HTU21D;51970;53.484;49.488;2023-07-08T01:02:18;21.61;63.92
65369;HTU21D;51970;53.484;49.488;2023-07-08T01:05:06;21.79;63.18
65369;HTU21D;51970;53.484;49.488;2023-07-08T01:07:38;21.89;62.57
65369;HTU21D;51970;53.484;49.488;2023-07-08T01:10:08;22.18;61.68
65369;HTU21D;51970;53.484;49.488;2023-07-08T01:12:46;23.12;58.63
65369;HTU21D;51970;53.484;49.488;2023-07-08T01:15:14;23.94;56.10
65369;HTU21D;51970;53.484;49.488;2023-07-08T01:17:43;24.39;54.33
65369;HTU21D;51970;53.484;49.488;2023-07-08T01:20:10;24.75;53.20
65369;HTU21D;51970;53.484;49.488;2023-07-08T01:22:41;25.28;51.56
65369;HTU21D;51970;53.484;49.488;2023-07-08T01:25:09;25.75;50.01
65369;HTU21D;51970;53.484;49.488;2023-07-08T01:27:39;26.40;47.92
65369;HTU21D;51970;53.484;49.488;2023-07-08T01:30:06;26.63;46.99
65369;HTU21D;51970;53.484;49.488;2023-07-08T01:32:40;26.72;46.54
65369;HTU21D;51970;53.484;49.488;2023-07-08T01:35:09;27.05;45.77
65369;HTU21D;51970;53.484;49.488;2023-07-08T01:37:43;27.29;45.03
65369;HTU21D;51970;53.484;49.488;2023-07-08T01:40:24;27.84;43.36
65369;HTU21D;51970;53.484;49.488;2023-07-08T01:42:51;28.29;41.94
65369;HTU21D;51970;53.484;49.488;2023-07-08T01:45:20;28.84;41.04
65369;HTU21D;51970;53.484;49.488;2023-07-08T01:47:52;29.35;39.75
65369;HTU21D;51970;53.484;49.488;2023-07-08T01:50:20;29.33;40.01
65369;HTU21D;51970;53.484;49.488;2023-07-08T01:52:48;29.28;40.09
65369;HTU21D;51970;53.484;49.488;2023-07-08T01:55:19;29.83;38.66
65369;HTU21D;51970;53.484;49.488;2023-07-08T01:57:46;29.94;38.46
65369;HTU21D;51970;53.484;49.488;2023-07-08T02:00:13;30.01;38.48
65369;HTU21D;51970;53.484;49.488;2023-07-08T02:02:39;29.96;38.68
65369;HTU21D;51970;53.484;49.488;2023-07-08T02:05:05;30.24;37.67
65369;HTU21D;51970;53.484;49.488;2023-07-08T02:07:31;30.38;37.67
65369;HTU21D;51970;53.484;49.488;2023-07-08T02:09:58;30.66;36.87
65369;HTU21D;51970;53.484;49.488;2023-07-08T02:12:24;31.19;35.74
65369;HTU21D;51970;53.484;49.488;2023-07-08T02:14:50;31.58;35.00
65369;HTU21D;51970;53.484;49.488;2023-07-08T02:17:16;31.54;35.10
65369;HTU21D;51970;53.484;49.488;2023-07-08T02:19:43;31.84;34.76
65369;HTU21D;51970;53.484;49.488;2023-07-08T02:22:10;32.07;34.41
65369;HTU21D;51970;53.484;49.488;2023-07-08T02:24:36;32.59;33.50
65369;HTU21D;51970;53.484;49.488;2023-07-08T02:27:02;32.18;34.07
65369;HTU21D;51970;53.484;49.488;2023-07-08T02:29:28;32.34;34.10
65369;HTU21D;51970;53.484;49.488;2023-07-08T02:31:55;32.33;33.44
65369;HTU21D;51970;53.484;49.488;2023-07-08T02:34:21;32.44;34.08
65369;HTU21D;51970;53.484;49.488;2023-07-08T02:36:47;32.79;34.02
65369;HTU21D;51970;53.484;49.488;2023-07-08T02:39:13;32.84;33.23
65369;HTU21D;51970;53.484;49.488;2023-07-08T02:41:40;33.38;31.92
65369;HTU21D;51970;53.484;49.488;2023-07-08T02:44:06;33.35;32.48
65369;HTU21D;51970;53.484;49.488;2023-07-08T02:46:33;33.43;31.69
65369;HTU21D;51970;53.484;49.488;2023-07-08T02:48:59;33.42;31.38
65369;HTU21D;51970;53.484;49.488;2023-07-08T02:51:25;33.52;31.41
65369;HTU21D;51970;53.484;49.488;2023-07-08T02:53:51;34.10;29.85
65369;HTU21D;51970;53.484;49.488;2023-07-08T02:56:18;34.35;29.30
65369;HTU21D;51970;53.484;49.488;2023-07-08T02:58:44;34.66;28.77
65369;HTU21D;51970;53.484;49.488;2023-07-08T03:01:10;34.64;29.13
65369;HTU21D;51970;53.484;49.488;2023-07-08T03:03:36;34.51;29.32
65369;HTU21D;51970;53.484;49.488;2023-07-08T03:06:04;34.73;29.00
65369;HTU21D;51970;53.484;49.488;2023-07-08T03:08:33;34.93;28.13
65369;HTU21D;51970;53.484;49.488;2023-07-08T03:11:02;35.00;28.91
65369;HTU21D;51970;53.484;49.488;2023-07-08T03:13:29;34.64;28.77
65369;HTU21D;51970;53.484;49.488;2023-07-08T03:15:56;34.47;28.70
65369;HTU21D;51970;53.484;49.488;2023-07-08T03:18:23;34.33;29.32
65369;HTU21D;51970;53.484;49.488;2023-07-08T03:20:50;34.66;29.38
65369;HTU21D;51970;53.484;49.488;2023-07-08T03:23:16;34.90;29.14
65369;HTU21D;51970;53.484;49.488;2023-07-08T03:25:42;34.98;29.16
65369;HTU21D;51970;53.484;49.488;2023-07-08T03:28:09;35.12;28.66
65369;HTU21D;51970;53.484;49.488;2023-07-08T03:30:42;34.95;29.61
65369;HTU21D;51970;53.484;49.488;2023-07-08T03:33:09;35.31;29.03
65369;HTU21D;51970;53.484;49.488;2023-07-08T03:35:35;35.03;29.71
65369;HTU21D;51970;53.484;49.488;2023-07-08T03:38:02;35.01;29.77
65369;HTU21D;51970;53.484;49.488;2023-07-08T03:40:29;35.21;29.41
65369;HTU21D;51970;53.484;49.488;2023-07-08T03:42:55;35.28;29.21
65369;HTU21D;51970;53.484;49.488;2023-07-08T03:45:21;34.63;30.28
65369;HTU21D;51970;53.484;49.488;2023-07-08T03:47:48;32.42;34.61
65369;HTU21D;51970;53.484;49.488;2023-07-08T03:50:23;30.74;38.01
65369;HTU21D;51970;53.484;49.488;2023-07-08T03:52:51;29.63;40.68
65369;HTU21D;51970;53.484;49.488;2023-07-08T03:55:18;29.17;41.75
65369;HTU21D;51970;53.484;49.488;2023-07-08T03:57:44;28.95;41.28
65369;HTU21D;51970;53.484;49.488;2023-07-08T04:00:11;28.97;41.44
65369;HTU21D;51970;53.484;49.488;2023-07-08T04:02:41;29.04;41.14
65369;HTU21D;51970;53.484;49.488;2023-07-08T04:05:22;29.21;40.68
65369;HTU21D;51970;53.484;49.488;2023-07-08T04:07:48;29.09;39.78
65369;HTU21D;51970;53.484;49.488;2023-07-08T04:10:15;28.95;40.88
65369;HTU21D;51970;53.484;49.488;2023-07-08T04:12:43;28.86;40.71
65369;HTU21D;51970;53.484;49.488;2023-07-08T04:15:10;29.00;40.71
65369;HTU21D;51970;53.484;49.488;2023-07-08T04:17:45;29.17;40.42
65369;HTU21D;51970;53.484;49.488;2023-07-08T04:20:17;29.00;40.78
65369;HTU21D;51970;53.484;49.488;2023-07-08T04:22:45;28.79;41.24
65369;HTU21D;51970;53.484;49.488;2023-07-08T04:25:12;28.86;41.21
65369;HTU21D;51970;53.484;49.488;2023-07-08T04:27:40;29.08;40.88
65369;HTU21D;51970;53.484;49.488;2023-07-08T04:30:14;29.36;39.82
65369;HTU21D;51970;53.484;49.488;2023-07-08T04:32:43;29.35;39.74
65369;HTU21D;51970;53.484;49.488;2023-07-08T04:35:09;29.58;39.11
65369;HTU21D;51970;53.484;49.488;2023-07-08T04:37:37;29.78;38.43
65369;HTU21D;51970;53.484;49.488;2023-07-08T04:40:03;29.88;37.86
65369;HTU21D;51970;53.484;49.488;2023-07-08T04:42:31;29.96;38.01
65369;HTU21D;51970;53.484;49.488;2023-07-08T04:44:57;30.08;37.59
65369;HTU21D;51970;53.484;49.488;2023-07-08T04:47:23;29.94;37.73
65369;HTU21D;51970;53.484;49.488;2023-07-08T04:49:49;29.86;38.66
65369;HTU21D;51970;53.484;49.488;2023-07-08T04:52:16;29.85;38.44
65369;HTU21D;51970;53.484;49.488;2023-07-08T04:54:42;30.11;37.08
65369;HTU21D;51970;53.484;49.488;2023-07-08T04:57:08;30.32;37.04
65369;HTU21D;51970;53.484;49.488;2023-07-08T04:59:34;30.38;37.13
65369;HTU21D;51970;53.484;49.488;2023-07-08T05:02:01;30.47;37.63
65369;HTU21D;51970;53.484;49.488;2023-07-08T05:04:28;30.55;37.65
65369;HTU21D;51970;53.484;49.488;2023-07-08T05:06:54;30.51;37.27
65369;HTU21D;51970;53.484;49.488;2023-07-08T05:09:20;30.57;37.35
65369;HTU21D;51970;53.484;49.488;2023-07-08T05:11:49;30.84;36.70
65369;HTU21D;51970;53.484;49.488;2023-07-08T05:14:15;31.14;35.45
65369;HTU21D;51970;53.484;49.488;2023-07-08T05:16:41;31.27;34.91
65369;HTU21D;51970;53.484;49.488;2023-07-08T05:19:08;31.11;35.15
65369;HTU21D;51970;53.484;49.488;2023-07-08T05:21:34;30.97;35.64
65369;HTU21D;51970;53.484;49.488;2023-07-08T05:24:04;31.04;35.49
65369;HTU21D;51970;53.484;49.488;2023-07-08T05:26:31;31.08;36.21
65369;HTU21D;51970;53.484;49.488;2023-07-08T05:28:58;31.11;35.92
65369;HTU21D;51970;53.484;49.488;2023-07-08T05:31:24;31.10;36.39
65369;HTU21D;51970;53.484;49.488;2023-07-08T05:33:51;31.24;34.68
65369;HTU21D;51970;53.484;49.488;2023-07-08T05:36:17;31.20;35.28
65369;HTU21D;51970;53.484;49.488;2023-07-08T05:38:43;31.06;35.88
65369;HTU21D;51970;53.484;49.488;2023-07-08T05:41:09;31.06;36.21
65369;HTU21D;51970;53.484;49.488;2023-07-08T05:43:36;31.21;35.47
65369;HTU21D;51970;53.484;49.488;2023-07-08T05:46:02;31.40;34.93
65369;HTU21D;51970;53.484;49.488;2023-07-08T05:48:28;31.59;34.34
65369;HTU21D;51970;53.484;49.488;2023-07-08T05:50:55;31.87;33.60
65369;HTU21D;51970;53.484;49.488;2023-07-08T05:53:21;32.01;33.98
65369;HTU21D;51970;53.484;49.488;2023-07-08T05:55:48;32.03;33.56
65369;HTU21D;51970;53.484;49.488;2023-07-08T05:58:15;32.03;33.41
65369;HTU21D;51970;53.484;49.488;2023-07-08T06:00:42;31.80;34.32
65369;HTU21D;51970;53.484;49.488;2023-07-08T06:03:09;32.03;33.93
65369;HTU21D;51970;53.484;49.488;2023-07-08T06:05:37;32.15;33.28
65369;HTU21D;51970;53.484;49.488;2023-07-08T06:08:05;32.29;32.57
65369;HTU21D;51970;53.484;49.488;2023-07-08T06:10:31;32.29;33.04
65369;HTU21D;51970;53.484;49.488;2023-07-08T06:12:57;32.27;32.58
65369;HTU21D;51970;53.484;49.488;2023-07-08T06:15:24;32.27;33.36
65369;HTU21D;51970;53.484;49.488;2023-07-08T06:17:50;32.38;32.64
65369;HTU21D;51970;53.484;49.488;2023-07-08T06:20:16;32.24;33.20
65369;HTU21D;51970;53.484;49.488;2023-07-08T06:22:42;32.39;32.60
65369;HTU21D;51970;53.484;49.488;2023-07-08T06:25:09;32.61;32.52
65369;HTU21D;51970;53.484;49.488;2023-07-08T06:27:35;32.72;32.26
65369;HTU21D;51970;53.484;49.488;2023-07-08T06:30:01;32.66;31.33
65369;HTU21D;51970;53.484;49.488;2023-07-08T06:32:27;32.53;31.55
65369;HTU21D;51970;53.484;49.488;2023-07-08T06:34:54;32.57;31.79
65369;HTU21D;51970;53.484;49.488;2023-07-08T06:37:20;32.43;31.03
65369;HTU21D;51970;53.484;49.488;2023-07-08T06:39:46;32.33;31.18
65369;HTU21D;51970;53.484;49.488;2023-07-08T06:42:12;32.60;31.15
65369;HTU21D;51970;53.484;49.488;2023-07-08T06:44:39;32.68;31.62
65369;HTU21D;51970;53.484;49.488;2023-07-08T06:47:05;32.69;31.01
65369;HTU21D;51970;53.484;49.488;2023-07-08T06:49:31;32.74;30.74
65369;HTU21D;51970;53.484;49.488;2023-07-08T06:51:57;33.13;30.35
65369;HTU21D;51970;53.484;49.488;2023-07-08T06:54:25;33.28;29.03
65369;HTU21D;51970;53.484;49.488;2023-07-08T06:56:53;33.27;29.55
65369;HTU21D;51970;53.484;49.488;2023-07-08T06:59:20;33.15;29.63
65369;HTU21D;51970;53.484;49.488;2023-07-08T07:01:46;33.22;29.99
65369;HTU21D;51970;53.484;49.488;2023-07-08T07:04:12;33.30;29.96
65369;HTU21D;51970;53.484;49.488;2023-07-08T07:06:39;33.33;29.42
65369;HTU21D;51970;53.484;49.488;2023-07-08T07:09:05;33.33;30.27
65369;HTU21D;51970;53.484;49.488;2023-07-08T07:11:31;33.34;30.13
65369;HTU21D;51970;53.484;49.488;2023-07-08T07:13:57;33.29;29.44
65369;HTU21D;51970;53.484;49.488;2023-07-08T07:16:24;33.29;30.25
65369;HTU21D;51970;53.484;49.488;2023-07-08T07:18:50;33.32;28.99
65369;HTU21D;51970;53.484;49.488;2023-07-08T07:21:17;33.33;27.91
65369;HTU21D;51970;53.484;49.488;2023-07-08T07:23:44;33.42;28.66
65369;HTU21D;51970;53.484;49.488;2023-07-08T07:26:10;33.35;27.58
65369;HTU21D;51970;53.484;49.488;2023-07-08T07:28:37;33.44;28.17
65369;HTU21D;51970;53.484;49.488;2023-07-08T07:31:03;33.72;28.58
65369;HTU21D;51970;53.484;49.488;2023-07-08T07:33:31;33.93;29.32
65369;HTU21D;51970;53.484;49.488;2023-07-08T07:35:57;33.70;28.63
65369;HTU21D;51970;53.484;49.488;2023-07-08T07:38:24;33.86;29.09
65369;HTU21D;51970;53.484;49.488;2023-07-08T07:40:55;34.02;27.89
65369;HTU21D;51970;53.484;49.488;2023-07-08T07:43:22;34.18;26.91
65369;HTU21D;51970;53.484;49.488;2023-07-08T07:45:52;34.10;26.74
65369;HTU21D;51970;53.484;49.488;2023-07-08T07:48:19;33.91;27.39
65369;HTU21D;51970;53.484;49.488;2023-07-08T07:50:47;34.10;27.00
65369;HTU21D;51970;53.484;49.488;2023-07-08T07:53:14;33.87;28.03
65369;HTU21D;51970;53.484;49.488;2023-07-08T07:55:40;33.90;27.55
65369;HTU21D;51970;53.484;49.488;2023-07-08T07:58:07;34.02;27.18
65369;HTU21D;51970;53.484;49.488;2023-07-08T08:00:34;34.12;27.43
65369;HTU21D;51970;53.484;49.488;2023-07-08T08:03:00;34.21;27.98
65369;HTU21D;51970;53.484;49.488;2023-07-08T08:05:26;34.34;28.00
65369;HTU21D;51970;53.484;49.488;2023-07-08T08:07:52;34.32;27.24
65369;HTU21D;51970;53.484;49.488;2023-07-08T08:10:19;34.08;27.36
65369;HTU21D;51970;53.484;49.488;2023-07-08T08:12:45;33.93;28.68
65369;HTU21D;51970;53.484;49.488;2023-07-08T08:15:13;34.01;28.49
65369;HTU21D;51970;53.484;49.488;2023-07-08T08:17:39;34.06;28.36
65369;HTU21D;51970;53.484;49.488;2023-07-08T08:20:06;34.22;27.52
65369;HTU21D;51970;53.484;49.488;2023-07-08T08:22:33;34.22;27.23
65369;HTU21D;51970;53.484;49.488;2023-07-08T08:24:59;34.00;27.52
65369;HTU21D;51970;53.484;49.488;2023-07-08T08:27:25;33.94;28.07
65369;HTU21D;51970;53.484;49.488;2023-07-08T08:29:51;33.87;28.42
65369;HTU21D;51970;53.484;49.488;2023-07-08T08:32:18;34.11;28.03
65369;HTU21D;51970;53.484;49.488;2023-07-08T08:34:44;34.07;28.78
65369;HTU21D;51970;53.484;49.488;2023-07-08T08:37:11;33.93;28.56
65369;HTU21D;51970;53.484;49.488;2023-07-08T08:39:37;33.94;28.95
65369;HTU21D;51970;53.484;49.488;2023-07-08T08:42:06;34.22;28.34
65369;HTU21D;51970;53.484;49.488;2023-07-08T08:44:38;34.42;27.80
65369;HTU21D;51970;53.484;49.488;2023-07-08T08:47:31;34.32;27.72
65369;HTU21D;51970;53.484;49.488;2023-07-08T08:50:12;34.38;27.68
65369;HTU21D;51970;53.484;49.488;2023-07-08T08:52:46;34.27;27.81
65369;HTU21D;51970;53.484;49.488;2023-07-08T08:55:14;34.25;27.94
65369;HTU21D;51970;53.484;49.488;2023-07-08T08:57:48;34.52;27.26
65369;HTU21D;51970;53.484;49.488;2023-07-08T09:00:24;34.41;27.07
65369;HTU21D;51970;53.484;49.488;2023-07-08T09:02:57;34.63;26.84
65369;HTU21D;51970;53.484;49.488;2023-07-08T09:05:25;34.63;26.14
65369;HTU21D;51970;53.484;49.488;2023-07-08T09:10:50;34.89;26.46
65369;HTU21D;51970;53.484;49.488;2023-07-08T09:13:31;35.06;26.46
65369;HTU21D;51970;53.484;49.488;2023-07-08T09:18:58;35.23;26.25
65369;HTU21D;51970;53.484;49.488;2023-07-08T09:21:57;35.34;26.21
65369;HTU21D;51970;53.484;49.488;2023-07-08T09:27:06;35.04;27.04
65369;HTU21D;51970;53.484;49.488;2023-07-08T09:29:33;35.24;26.78
65369;HTU21D;51970;53.484;49.488;2023-07-08T09:32:15;35.09;26.70
65369;HTU21D;51970;53.484;49.488;2023-07-08T09:34:55;34.96;26.78
65369;HTU21D;51970;53.484;49.488;2023-07-08T09:37:27;35.25;25.96
65369;HTU21D;51970;53.484;49.488;2023-07-08T09:39:55;35.10;26.33
65369;HTU21D;51970;53.484;49.488;2023-07-08T09:42:26;35.20;25.72
65369;HTU21D;51970;53.484;49.488;2023-07-08T09:45:03;35.25;26.35
65369;HTU21D;51970;53.484;49.488;2023-07-08T09:47:36;35.43;25.72
65369;HTU21D;51970;53.484;49.488;2023-07-08T09:50:10;35.47;25.59
65369;HTU21D;51970;53.484;49.488;2023-07-08T09:52:41;35.26;25.96
65369;HTU21D;51970;53.484;49.488;2023-07-08T09:55:11;34.94;26.26
65369;HTU21D;51970;53.484;49.488;2023-07-08T09:57:38;34.89;26.45
65369;HTU21D;51970;53.484;49.488;2023-07-08T10:00:12;34.85;26.75
65369;HTU21D;51970;53.484;49.488;2023-07-08T10:03:00;34.99;26.81
65369;HTU21D;51970;53.484;49.488;2023-07-08T10:05:33;35.09;26.12
65369;HTU21D;51970;53.484;49.488;2023-07-08T10:08:03;35.07;26.59
65369;HTU21D;51970;53.484;49.488;2023-07-08T10:10:36;35.08;27.04
65369;HTU21D;51970;53.484;49.488;2023-07-08T10:13:06;34.85;27.08
65369;HTU21D;51970;53.484;49.488;2023-07-08T10:15:44;34.66;26.83
65369;HTU21D;51970;53.484;49.488;2023-07-08T10:18:16;34.75;27.30
65369;HTU21D;51970;53.484;49.488;2023-07-08T10:20:56;34.80;26.86
65369;HTU21D;51970;53.484;49.488;2023-07-08T10:23:41;34.89;26.03
65369;HTU21D;51970;53.484;49.488;2023-07-08T10:26:25;34.77;26.34
65369;HTU21D;51970;53.484;49.488;2023-07-08T10:31:31;35.08;25.96
65369;HTU21D;51970;53.484;49.488;2023-07-08T10:56:42;35.72;26.84
65369;HTU21D;51970;53.484;49.488;2023-07-08T11:07:47;35.55;26.01
65369;HTU21D;51970;53.484;49.488;2023-07-08T11:10:28;35.70;25.58
65369;HTU21D;51970;53.484;49.488;2023-07-08T11:13:06;35.41;26.27
65369;HTU21D;51970;53.484;49.488;2023-07-08T11:15:56;35.13;26.64
65369;HTU21D;51970;53.484;49.488;2023-07-08T11:18:39;35.11;26.88
65369;HTU21D;51970;53.484;49.488;2023-07-08T11:21:31;35.07;26.81
65369;HTU21D;51970;53.484;49.488;2023-07-08T11:26:57;35.44;26.62
65369;HTU21D;51970;53.484;49.488;2023-07-08T11:29:46;35.52;27.00
65369;HTU21D;51970;53.484;49.488;2023-07-08T11:32:16;35.70;26.10
65369;HTU21D;51970;53.484;49.488;2023-07-08T11:34:46;35.94;26.21
65369;HTU21D;51970;53.484;49.488;2023-07-08T11:37:14;35.86;26.49
65369;HTU21D;51970;53.484;49.488;2023-07-08T11:39:45;35.71;26.33
65369;HTU21D;51970;53.484;49.488;2023-07-08T11:44:54;35.65;25.96
65369;HTU21D;51970;53.484;49.488;2023-07-08T11:49:53;36.02;26.28
65369;HTU21D;51970;53.484;49.488;2023-07-08T11:52:22;36.18;25.25
65369;HTU21D;51970;53.484;49.488;2023-07-08T11:54:59;36.19;26.08
65369;HTU21D;51970;53.484;49.488;2023-07-08T11:57:31;36.25;24.97
65369;HTU21D;51970;53.484;49.488;2023-07-08T12:00:18;36.23;25.73
65369;HTU21D;51970;53.484;49.488;2023-07-08T12:02:57;36.24;26.03
65369;HTU21D;51970;53.484;49.488;2023-07-08T12:05:41;35.93;27.70
65369;HTU21D;51970;53.484;49.488;2023-07-08T12:08:14;35.82;27.07
65369;HTU21D;51970;53.484;49.488;2023-07-08T12:10:51;35.68;27.18
65369;HTU21D;51970;53.484;49.488;2023-07-08T12:13:22;35.59;26.63
65369;HTU21D;51970;53.484;49.488;2023-07-08T12:15:48;35.75;26.55
65369;HTU21D;51970;53.484;49.488;2023-07-08T12:18:19;35.93;26.75
65369;HTU21D;51970;53.484;49.488;2023-07-08T12:20:52;36.10;25.94
65369;HTU21D;51970;53.484;49.488;2023-07-08T12:23:23;36.07;25.32
65369;HTU21D;51970;53.484;49.488;2023-07-08T12:25:51;36.02;25.78
65369;HTU21D;51970;53.484;49.488;2023-07-08T12:28:19;36.02;25.75
65369;HTU21D;51970;53.484;49.488;2023-07-08T12:30:46;35.98;25.89
65369;HTU21D;51970;53.484;49.488;2023-07-08T12:33:19;36.03;25.68
65369;HTU21D;51970;53.484;49.488;2023-07-08T12:35:47;36.03;25.92
65369;HTU21D;51970;53.484;49.488;2023-07-08T12:38:47;36.00;26.02
65369;HTU21D;51970;53.484;49.488;2023-07-08T12:41:22;36.08;25.49
65369;HTU21D;51970;53.484;49.488;2023-07-08T12:43:50;36.17;25.56
65369;HTU21D;51970;53.484;49.488;2023-07-08T12:46:19;35.96;25.49
65369;HTU21D;51970;53.484;49.488;2023-07-08T12:48:46;35.83;25.47
65369;HTU21D;51970;53.484;49.488;2023-07-08T12:51:16;35.80;25.52
65369;HTU21D;51970;53.484;49.488;2023-07-08T12:53:43;35.58;25.65
65369;HTU21D;51970;53.484;49.488;2023-07-08T12:56:10;35.62;25.91
65369;HTU21D;51970;53.484;49.488;2023-07-08T12:59:03;35.57;26.31
65369;HTU21D;51970;53.484;49.488;2023-07-08T13:01:31;35.54;26.46
65369;HTU21D;51970;53.484;49.488;2023-07-08T13:04:02;35.42;26.45
65369;HTU21D;51970;53.484;49.488;2023-07-08T13:06:31;35.43;26.39
65369;HTU21D;51970;53.484;49.488;2023-07-08T13:09:23;35.47;26.67
65369;HTU21D;51970;53.484;49.488;2023-07-08T13:11:50;35.26;27.16
65369;HTU21D;51970;53.484;49.488;2023-07-08T13:14:19;35.30;26.91
65369;HTU21D;51970;53.484;49.488;2023-07-08T13:16:47;35.12;27.42
65369;HTU21D;51970;53.484;49.488;2023-07-08T13:19:15;35.13;27.71
65369;HTU21D;51970;53.484;49.488;2023-07-08T13:21:41;35.15;27.87
65369;HTU21D;51970;53.484;49.488;2023-07-08T13:24:09;35.11;28.02
65369;HTU21D;51970;53.484;49.488;2023-07-08T13:26:37;35.13;27.68
65369;HTU21D;51970;53.484;49.488;2023-07-08T13:29:17;35.09;28.23
65369;HTU21D;51970;53.484;49.488;2023-07-08T13:31:49;35.03;28.11
65369;HTU21D;51970;53.484;49.488;2023-07-08T13:34:18;35.06;27.68
65369;HTU21D;51970;53.484;49.488;2023-07-08T13:36:48;34.96;27.71
65369;HTU21D;51970;53.484;49.488;2023-07-08T13:39:21;34.82;28.01
65369;HTU21D;51970;53.484;49.488;2023-07-08T13:41:48;34.67;28.41
65369;HTU21D;51970;53.484;49.488;2023-07-08T13:44:15;34.48;28.50
65369;HTU21D;51970;53.484;49.488;2023-07-08T13:46:52;34.35;28.67
65369;HTU21D;51970;53.484;49.488;2023-07-08T13:49:29;34.34;28.78
65369;HTU21D;51970;53.484;49.488;2023-07-08T13:52:07;34.40;28.84
65369;HTU21D;51970;53.484;49.488;2023-07-08T13:54:39;34.42;28.82
65369;HTU21D;51970;53.484;49.488;2023-07-08T13:57:16;34.47;28.93
65369;HTU21D;51970;53.484;49.488;2023-07-08T13:59:42;34.56;28.52
65369;HTU21D;51970;53.484;49.488;2023-07-08T14:04:43;34.92;28.08
65369;HTU21D;51970;53.484;49.488;2023-07-08T14:07:15;35.21;27.28
65369;HTU21D;51970;53.484;49.488;2023-07-08T14:09:42;35.28;27.10
65369;HTU21D;51970;53.484;49.488;2023-07-08T14:12:08;35.39;27.10
65369;HTU21D;51970;53.484;49.488;2023-07-08T14:14:34;35.73;26.20
65369;HTU21D;51970;53.484;49.488;2023-07-08T14:17:01;36.04;26.04
65369;HTU21D;51970;53.484;49.488;2023-07-08T14:19:30;36.21;25.81
65369;HTU21D;51970;53.484;49.488;2023-07-08T14:21:59;36.37;25.44
65369;HTU21D;51970;53.484;49.488;2023-07-08T14:24:25;36.61;25.13
65369;HTU21D;51970;53.484;49.488;2023-07-08T14:26:53;36.82;25.17
65369;HTU21D;51970;53.484;49.488;2023-07-08T14:29:19;37.02;24.63
65369;HTU21D;51970;53.484;49.488;2023-07-08T14:31:46;36.84;25.09
65369;HTU21D;51970;53.484;49.488;2023-07-08T14:34:20;36.99;24.82
65369;HTU21D;51970;53.484;49.488;2023-07-08T14:36:48;37.54;24.18
65369;HTU21D;51970;53.484;49.488;2023-07-08T14:39:16;37.66;23.87
65369;HTU21D;51970;53.484;49.488;2023-07-08T14:41:44;37.76;23.69
65369;HTU21D;51970;53.484;49.488;2023-07-08T14:44:19;37.99;23.34
65369;HTU21D;51970;53.484;49.488;2023-07-08T14:46:46;38.11;22.92
65369;HTU21D;51970;53.484;49.488;2023-07-08T14:49:21;37.65;23.79
65369;HTU21D;51970;53.484;49.488;2023-07-08T14:51:48;37.84;23.57
65369;HTU21D;51970;53.484;49.488;2023-07-08T14:54:15;37.96;23.67
65369;HTU21D;51970;53.484;49.488;2023-07-08T14:56:41;37.93;23.64
65369;HTU21D;51970;53.484;49.488;2023-07-08T14:59:23;37.01;25.21
65369;HTU21D;51970;53.484;49.488;2023-07-08T15:01:51;35.97;26.55
65369;HTU21D;51970;53.484;49.488;2023-07-08T15:04:18;35.25;27.28
65369;HTU21D;51970;53.484;49.488;2023-07-08T15:06:45;35.57;27.13
65369;HTU21D;51970;53.484;49.488;2023-07-08T15:09:13;36.29;26.14
65369;HTU21D;51970;53.484;49.488;2023-07-08T15:11:44;36.53;25.72
65369;HTU21D;51970;53.484;49.488;2023-07-08T15:14:20;36.82;25.30
65369;HTU21D;51970;53.484;49.488;2023-07-08T15:16:48;37.03;25.23
65369;HTU21D;51970;53.484;49.488;2023-07-08T15:19:14;36.85;25.31
65369;HTU21D;51970;53.484;49.488;2023-07-08T15:21:41;36.66;25.97
65369;HTU21D;51970;53.484;49.488;2023-07-08T15:24:09;36.69;26.19
65369;HTU21D;51970;53.484;49.488;2023-07-08T15:26:42;35.80;28.00
65369;HTU21D;51970;53.484;49.488;2023-07-08T15:29:18;34.75;29.84
65369;HTU21D;51970;53.484;49.488;2023-07-08T15:31:44;34.11;30.95
65369;HTU21D;51970;53.484;49.488;2023-07-08T15:34:13;33.72;31.22
65369;HTU21D;51970;53.484;49.488;2023-07-08T15:36:40;33.42;32.02
65369;HTU21D;51970;53.484;49.488;2023-07-08T15:39:06;33.25;32.44
65369;HTU21D;51970;53.484;49.488;2023-07-08T15:41:33;33.14;32.48
65369;HTU21D;51970;53.484;49.488;2023-07-08T15:43:59;32.99;32.51
65369;HTU21D;51970;53.484;49.488;2023-07-08T15:46:40;32.85;33.12
65369;HTU21D;51970;53.484;49.488;2023-07-08T15:49:22;32.68;33.59
65369;HTU21D;51970;53.484;49.488;2023-07-08T15:51:49;32.59;33.47
65369;HTU21D;51970;53.484;49.488;2023-07-08T15:54:17;32.55;33.53
65369;HTU21D;51970;53.484;49.488;2023-07-08T15:56:46;32.48;33.51
65369;HTU21D;51970;53.484;49.488;2023-07-08T15:59:17;32.39;33.75
65369;HTU21D;51970;53.484;49.488;2023-07-08T16:01:45;32.30;33.60
65369;HTU21D;51970;53.484;49.488;2023-07-08T16:04:26;32.19;33.92
65369;HTU21D;51970;53.484;49.488;2023-07-08T16:06:55;32.14;34.16
65369;HTU21D;51970;53.484;49.488;2023-07-08T16:09:21;32.09;34.28
65369;HTU21D;51970;53.484;49.488;2023-07-08T16:11:47;32.01;34.71
65369;HTU21D;51970;53.484;49.488;2023-07-08T16:14:15;31.96;34.58